Sondheimer, LA (71276)

2:36 AM CDT on April 21, 2015 (GMT -0500)
Vicksburg Tallulah Regional | | Change Station
CLOSE
Current Station
Airport
Location: Vicksburg,
Elevation: 85 ft
Nearby Weather Stations
Active Advisory: Flood Advisory Active Notice: Local Storm Report

Elev 85 ft 32.35 °N, 91.03 °W | Updated 21 minutes ago

Clear
Clear
51 °F
Feels Like 51 °F
N
4
Wind Variable Wind from West

Today
High -- | Low -- °F
--% Chance of Precip.
Yesterday
High -- | Low -- °F
Precip. -- in
6:28 AM 7:38 PM
Waxing Crescent, 9% visible
Pressure 30.00 in
Visibility 3.0 miles
Clouds Clear
Dew Point 50 °F
Humidity 96%
Rainfall 0.00 in
Snow Depth Not available.
UV 0 out of 12
Pollen 8.60 out of 12
Air Quality Not available.
Flu Activity Local Activity
SPECI KTVR 210715Z AUTO 28003KT 3SM BR CLR 11/10 A3000 RMK AO2 T01060100

More Conditions Fewer Conditions

Pressure 30.00 in
Visibility 3.0 miles
Clouds Clear
Dew Point 50 °F
Humidity 96%
Rainfall 0.00 in
Snow Depth Not available.
UV 0 out of 12
Pollen 8.60 out of 12
Air Quality Not available.
Flu Activity Local Activity
SPECI KTVR 210715Z AUTO 28003KT 3SM BR CLR 11/10 A3000 RMK AO2 T01060100

More Conditions Fewer Conditions

10-Day Weather Forecast

Almanac

Astronomy

Apr. 21, 2015 Rise Set
Actual Time
Civil Twilight
Nautical Twilight
Astronomical Twilight
Moon
Length of Visible Light
Length of Day
Tomorrow will be .
, % of the Moon is Illuminated

Today's Extremes

State Highs State Lows

Community

WunderPhotos

Upload Photos

1,815,324 photos uploaded!

WunderBlogs® & News

Nearby

Air Quality

  Air Quality AQ Index Pollutant
Not available.

Snow Depth

Station Depth Elevation

Earthquake Activity

City Distance Mag. Time & Date
Minimum magnitude displayed is 2.5.

Coastal Water Temperatures

Place Temperature

Stations

Nearby Weather Stations

Station Location Temp. Windchill Dew Point Humidity Wind Precip. Elev Updated Type
                   
Flood Advisory
Statement as of 9:00 PM CDT on April 20, 2015

The Flood Advisory continues for
the Mississippi River near Greenville.
* Until Tuesday evening.
* At 8:00 PM Monday the stage was 45.2 feet.
* Flood stage is 48.0 feet.
* Forecast... the river will rise to near 46.0 feet by Friday April
24.
* Impact... at 45.0 feet... Lower Lake Ferguson Road is closed. Warfield
Point park is closed.



              Flood observed forecast 7 am crest
location stg stg day time Tue Wed Thu crest time date

Lower Mississippi River
Greenville 48 45.2 Mon 08 PM 45.3 45.5 45.7 M M




Lat... Lon 3277 9123 3340 9128 3340 9105 3283 9101
      3277 9101 3278 9111